sensor_id;sensor_type;location;lat;lon;timestamp;P1;durP1;ratioP1;P2;durP2;ratioP2
2462;SDS011;1243;54.298;10.172;2022-09-09T00:04:29;25.77;;;17.73;;
2462;SDS011;1243;54.298;10.172;2022-09-09T00:07:03;30.10;;;18.37;;
2462;SDS011;1243;54.298;10.172;2022-09-09T00:21:11;28.80;;;19.20;;
2462;SDS011;1243;54.298;10.172;2022-09-09T00:23:48;30.57;;;19.50;;
2462;SDS011;1243;54.298;10.172;2022-09-09T00:26:22;29.00;;;18.97;;
2462;SDS011;1243;54.298;10.172;2022-09-09T00:29:05;31.10;;;20.00;;
2462;SDS011;1243;54.298;10.172;2022-09-09T00:31:41;26.97;;;19.20;;
2462;SDS011;1243;54.298;10.172;2022-09-09T00:36:43;28.87;;;19.17;;
2462;SDS011;1243;54.298;10.172;2022-09-09T00:51:29;31.47;;;20.83;;
2462;SDS011;1243;54.298;10.172;2022-09-09T00:54:10;28.10;;;19.00;;
2462;SDS011;1243;54.298;10.172;2022-09-09T00:56:45;32.13;;;18.47;;
2462;SDS011;1243;54.298;10.172;2022-09-09T00:59:31;26.50;;;19.13;;
2462;SDS011;1243;54.298;10.172;2022-09-09T01:02:18;26.53;;;17.87;;
2462;SDS011;1243;54.298;10.172;2022-09-09T01:05:22;27.80;;;19.60;;
2462;SDS011;1243;54.298;10.172;2022-09-09T01:11:26;23.77;;;18.03;;
2462;SDS011;1243;54.298;10.172;2022-09-09T01:17:05;32.90;;;19.67;;
2462;SDS011;1243;54.298;10.172;2022-09-09T01:28:08;29.53;;;18.37;;
2462;SDS011;1243;54.298;10.172;2022-09-09T01:30:41;26.63;;;16.23;;
2462;SDS011;1243;54.298;10.172;2022-09-09T01:33:09;29.93;;;18.10;;
2462;SDS011;1243;54.298;10.172;2022-09-09T01:35:48;31.23;;;18.37;;
2462;SDS011;1243;54.298;10.172;2022-09-09T01:38:22;28.00;;;17.83;;
2462;SDS011;1243;54.298;10.172;2022-09-09T01:40:49;25.93;;;16.90;;
2462;SDS011;1243;54.298;10.172;2022-09-09T01:43:19;27.43;;;17.93;;
2462;SDS011;1243;54.298;10.172;2022-09-09T01:45:49;25.00;;;17.17;;
2462;SDS011;1243;54.298;10.172;2022-09-09T01:48:19;22.03;;;15.83;;
2462;SDS011;1243;54.298;10.172;2022-09-09T01:50:52;29.30;;;17.77;;
2462;SDS011;1243;54.298;10.172;2022-09-09T01:53:19;22.23;;;16.13;;
2462;SDS011;1243;54.298;10.172;2022-09-09T02:02:12;23.87;;;16.03;;
2462;SDS011;1243;54.298;10.172;2022-09-09T02:04:52;23.47;;;17.87;;
2462;SDS011;1243;54.298;10.172;2022-09-09T02:10:40;27.27;;;17.77;;
2462;SDS011;1243;54.298;10.172;2022-09-09T02:12:51;25.93;;;16.47;;
2462;SDS011;1243;54.298;10.172;2022-09-09T02:15:34;28.37;;;16.77;;
2462;SDS011;1243;54.298;10.172;2022-09-09T02:18:08;30.20;;;17.33;;
2462;SDS011;1243;54.298;10.172;2022-09-09T02:20:44;26.60;;;17.50;;
2462;SDS011;1243;54.298;10.172;2022-09-09T02:23:11;33.00;;;16.43;;
2462;SDS011;1243;54.298;10.172;2022-09-09T02:25:39;30.17;;;18.13;;
2462;SDS011;1243;54.298;10.172;2022-09-09T02:28:07;24.93;;;15.17;;
2462;SDS011;1243;54.298;10.172;2022-09-09T02:30:35;27.50;;;17.27;;
2462;SDS011;1243;54.298;10.172;2022-09-09T02:33:04;27.03;;;16.03;;
2462;SDS011;1243;54.298;10.172;2022-09-09T02:35:37;28.17;;;16.90;;
2462;SDS011;1243;54.298;10.172;2022-09-09T02:38:07;26.30;;;15.57;;
2462;SDS011;1243;54.298;10.172;2022-09-09T02:40:37;29.33;;;16.93;;
2462;SDS011;1243;54.298;10.172;2022-09-09T02:43:03;27.73;;;18.67;;
2462;SDS011;1243;54.298;10.172;2022-09-09T02:48:30;38.37;;;17.90;;
2462;SDS011;1243;54.298;10.172;2022-09-09T02:51:08;33.03;;;18.93;;
2462;SDS011;1243;54.298;10.172;2022-09-09T02:53:43;34.73;;;19.93;;
2462;SDS011;1243;54.298;10.172;2022-09-09T02:56:23;38.30;;;20.30;;
2462;SDS011;1243;54.298;10.172;2022-09-09T02:58:57;34.17;;;20.43;;
2462;SDS011;1243;54.298;10.172;2022-09-09T03:01:23;36.73;;;21.27;;
2462;SDS011;1243;54.298;10.172;2022-09-09T03:03:49;37.77;;;22.03;;
2462;SDS011;1243;54.298;10.172;2022-09-09T03:06:15;40.20;;;21.30;;
2462;SDS011;1243;54.298;10.172;2022-09-09T03:08:44;47.17;;;22.17;;
2462;SDS011;1243;54.298;10.172;2022-09-09T03:11:21;47.10;;;24.20;;
2462;SDS011;1243;54.298;10.172;2022-09-09T03:13:53;38.50;;;22.10;;
2462;SDS011;1243;54.298;10.172;2022-09-09T03:16:21;37.50;;;22.07;;
2462;SDS011;1243;54.298;10.172;2022-09-09T03:18:48;38.80;;;20.87;;
2462;SDS011;1243;54.298;10.172;2022-09-09T03:21:14;44.17;;;24.57;;
2462;SDS011;1243;54.298;10.172;2022-09-09T03:23:40;41.53;;;21.90;;
2462;SDS011;1243;54.298;10.172;2022-09-09T03:26:07;41.10;;;22.30;;
2462;SDS011;1243;54.298;10.172;2022-09-09T03:28:33;43.27;;;23.57;;
2462;SDS011;1243;54.298;10.172;2022-09-09T03:31:02;43.37;;;22.43;;
2462;SDS011;1243;54.298;10.172;2022-09-09T03:33:29;49.20;;;22.77;;
2462;SDS011;1243;54.298;10.172;2022-09-09T03:35:56;47.07;;;24.17;;
2462;SDS011;1243;54.298;10.172;2022-09-09T03:38:28;49.40;;;23.67;;
2462;SDS011;1243;54.298;10.172;2022-09-09T03:40:54;36.20;;;21.90;;
2462;SDS011;1243;54.298;10.172;2022-09-09T03:43:27;43.27;;;21.87;;
2462;SDS011;1243;54.298;10.172;2022-09-09T03:45:57;34.10;;;20.87;;
2462;SDS011;1243;54.298;10.172;2022-09-09T03:48:24;42.97;;;22.17;;
2462;SDS011;1243;54.298;10.172;2022-09-09T03:50:52;44.87;;;22.17;;
2462;SDS011;1243;54.298;10.172;2022-09-09T03:53:19;41.23;;;20.30;;
2462;SDS011;1243;54.298;10.172;2022-09-09T03:55:49;41.00;;;20.20;;
2462;SDS011;1243;54.298;10.172;2022-09-09T03:58:20;41.30;;;23.17;;
2462;SDS011;1243;54.298;10.172;2022-09-09T04:00:53;38.97;;;20.93;;
2462;SDS011;1243;54.298;10.172;2022-09-09T04:03:21;37.67;;;21.33;;
2462;SDS011;1243;54.298;10.172;2022-09-09T04:05:50;36.83;;;20.53;;
2462;SDS011;1243;54.298;10.172;2022-09-09T04:08:19;44.90;;;22.43;;
2462;SDS011;1243;54.298;10.172;2022-09-09T04:10:46;35.37;;;19.93;;
2462;SDS011;1243;54.298;10.172;2022-09-09T04:13:58;40.67;;;21.87;;
2462;SDS011;1243;54.298;10.172;2022-09-09T04:16:12;42.57;;;23.37;;
2462;SDS011;1243;54.298;10.172;2022-09-09T04:18:38;40.77;;;21.90;;
2462;SDS011;1243;54.298;10.172;2022-09-09T04:21:05;47.63;;;20.87;;
2462;SDS011;1243;54.298;10.172;2022-09-09T04:23:35;46.87;;;23.13;;
2462;SDS011;1243;54.298;10.172;2022-09-09T04:26:01;42.30;;;21.90;;
2462;SDS011;1243;54.298;10.172;2022-09-09T04:28:43;36.67;;;21.60;;
2462;SDS011;1243;54.298;10.172;2022-09-09T04:31:13;46.80;;;21.77;;
2462;SDS011;1243;54.298;10.172;2022-09-09T04:33:43;40.37;;;21.20;;
2462;SDS011;1243;54.298;10.172;2022-09-09T04:36:09;44.80;;;22.10;;
2462;SDS011;1243;54.298;10.172;2022-09-09T04:38:35;43.10;;;20.40;;
2462;SDS011;1243;54.298;10.172;2022-09-09T04:41:21;48.47;;;22.77;;
2462;SDS011;1243;54.298;10.172;2022-09-09T04:43:47;41.50;;;20.93;;
2462;SDS011;1243;54.298;10.172;2022-09-09T04:46:13;39.07;;;21.87;;
2462;SDS011;1243;54.298;10.172;2022-09-09T04:48:43;35.23;;;19.67;;
2462;SDS011;1243;54.298;10.172;2022-09-09T04:51:13;34.50;;;20.77;;
2462;SDS011;1243;54.298;10.172;2022-09-09T04:53:39;38.07;;;22.00;;
2462;SDS011;1243;54.298;10.172;2022-09-09T04:56:09;42.50;;;21.43;;
2462;SDS011;1243;54.298;10.172;2022-09-09T04:58:37;35.40;;;21.97;;
2462;SDS011;1243;54.298;10.172;2022-09-09T05:01:08;32.27;;;17.67;;
2462;SDS011;1243;54.298;10.172;2022-09-09T05:03:44;38.70;;;19.60;;
2462;SDS011;1243;54.298;10.172;2022-09-09T05:06:12;35.90;;;18.83;;
2462;SDS011;1243;54.298;10.172;2022-09-09T05:08:39;43.13;;;21.33;;
2462;SDS011;1243;54.298;10.172;2022-09-09T05:17:11;41.27;;;21.60;;
2462;SDS011;1243;54.298;10.172;2022-09-09T05:19:37;43.23;;;23.10;;
2462;SDS011;1243;54.298;10.172;2022-09-09T05:22:03;36.80;;;22.80;;
2462;SDS011;1243;54.298;10.172;2022-09-09T05:24:30;42.60;;;20.97;;
2462;SDS011;1243;54.298;10.172;2022-09-09T05:26:58;34.67;;;20.33;;
2462;SDS011;1243;54.298;10.172;2022-09-09T05:29:25;41.23;;;20.93;;
2462;SDS011;1243;54.298;10.172;2022-09-09T05:31:51;37.90;;;20.87;;
2462;SDS011;1243;54.298;10.172;2022-09-09T05:34:17;36.47;;;20.83;;
2462;SDS011;1243;54.298;10.172;2022-09-09T05:36:43;39.57;;;20.80;;
2462;SDS011;1243;54.298;10.172;2022-09-09T05:39:09;36.27;;;20.93;;
2462;SDS011;1243;54.298;10.172;2022-09-09T05:41:37;39.50;;;22.40;;
2462;SDS011;1243;54.298;10.172;2022-09-09T05:44:03;34.97;;;22.50;;
2462;SDS011;1243;54.298;10.172;2022-09-09T05:46:29;43.87;;;22.13;;
2462;SDS011;1243;54.298;10.172;2022-09-09T05:52:05;35.33;;;20.83;;
2462;SDS011;1243;54.298;10.172;2022-09-09T05:54:32;43.63;;;19.70;;
2462;SDS011;1243;54.298;10.172;2022-09-09T05:56:58;39.10;;;20.27;;
2462;SDS011;1243;54.298;10.172;2022-09-09T05:59:24;35.07;;;19.77;;
2462;SDS011;1243;54.298;10.172;2022-09-09T06:01:50;42.80;;;19.10;;
2462;SDS011;1243;54.298;10.172;2022-09-09T06:04:16;40.87;;;19.97;;
2462;SDS011;1243;54.298;10.172;2022-09-09T06:06:42;36.73;;;20.33;;
2462;SDS011;1243;54.298;10.172;2022-09-09T06:09:08;47.47;;;22.37;;
2462;SDS011;1243;54.298;10.172;2022-09-09T06:11:36;36.87;;;19.53;;
2462;SDS011;1243;54.298;10.172;2022-09-09T06:14:03;44.57;;;21.70;;
2462;SDS011;1243;54.298;10.172;2022-09-09T06:16:30;44.47;;;19.97;;
2462;SDS011;1243;54.298;10.172;2022-09-09T06:19:09;42.37;;;20.57;;
2462;SDS011;1243;54.298;10.172;2022-09-09T06:21:37;41.53;;;21.00;;
2462;SDS011;1243;54.298;10.172;2022-09-09T06:24:03;43.27;;;20.57;;
2462;SDS011;1243;54.298;10.172;2022-09-09T06:26:30;52.40;;;23.97;;
2462;SDS011;1243;54.298;10.172;2022-09-09T06:29:02;47.50;;;19.77;;
2462;SDS011;1243;54.298;10.172;2022-09-09T06:31:29;45.30;;;21.80;;
2462;SDS011;1243;54.298;10.172;2022-09-09T06:33:59;53.27;;;22.13;;
2462;SDS011;1243;54.298;10.172;2022-09-09T06:36:29;44.13;;;22.03;;
2462;SDS011;1243;54.298;10.172;2022-09-09T06:38:57;41.50;;;21.17;;
2462;SDS011;1243;54.298;10.172;2022-09-09T06:41:24;40.80;;;21.40;;
2462;SDS011;1243;54.298;10.172;2022-09-09T06:43:52;44.73;;;21.47;;
2462;SDS011;1243;54.298;10.172;2022-09-09T06:46:21;43.67;;;21.43;;
2462;SDS011;1243;54.298;10.172;2022-09-09T06:48:53;42.80;;;23.27;;
2462;SDS011;1243;54.298;10.172;2022-09-09T06:51:30;41.40;;;22.07;;
2462;SDS011;1243;54.298;10.172;2022-09-09T06:53:59;38.50;;;22.27;;
2462;SDS011;1243;54.298;10.172;2022-09-09T06:56:37;46.73;;;22.13;;
2462;SDS011;1243;54.298;10.172;2022-09-09T06:59:07;42.30;;;22.03;;
2462;SDS011;1243;54.298;10.172;2022-09-09T07:01:38;43.80;;;20.30;;
2462;SDS011;1243;54.298;10.172;2022-09-09T07:04:23;36.07;;;20.23;;
2462;SDS011;1243;54.298;10.172;2022-09-09T07:06:50;43.03;;;21.80;;
2462;SDS011;1243;54.298;10.172;2022-09-09T07:09:17;40.77;;;21.37;;
2462;SDS011;1243;54.298;10.172;2022-09-09T07:11:47;37.90;;;22.07;;
2462;SDS011;1243;54.298;10.172;2022-09-09T07:14:24;42.83;;;21.33;;
2462;SDS011;1243;54.298;10.172;2022-09-09T07:16:50;47.07;;;24.07;;
2462;SDS011;1243;54.298;10.172;2022-09-09T07:19:36;39.80;;;19.47;;
2462;SDS011;1243;54.298;10.172;2022-09-09T07:22:02;38.50;;;21.60;;
2462;SDS011;1243;54.298;10.172;2022-09-09T07:24:28;44.73;;;21.83;;
2462;SDS011;1243;54.298;10.172;2022-09-09T07:26:55;44.47;;;21.90;;
2462;SDS011;1243;54.298;10.172;2022-09-09T07:29:21;44.17;;;21.60;;
2462;SDS011;1243;54.298;10.172;2022-09-09T07:31:47;41.80;;;21.63;;
2462;SDS011;1243;54.298;10.172;2022-09-09T07:34:13;42.07;;;22.37;;
2462;SDS011;1243;54.298;10.172;2022-09-09T07:36:39;35.90;;;20.00;;
2462;SDS011;1243;54.298;10.172;2022-09-09T07:39:08;42.97;;;20.70;;
2462;SDS011;1243;54.298;10.172;2022-09-09T07:41:39;39.50;;;20.57;;
2462;SDS011;1243;54.298;10.172;2022-09-09T07:44:11;34.13;;;21.73;;
2462;SDS011;1243;54.298;10.172;2022-09-09T07:46:42;49.40;;;23.03;;
2462;SDS011;1243;54.298;10.172;2022-09-09T07:49:10;43.17;;;23.07;;
2462;SDS011;1243;54.298;10.172;2022-09-09T07:51:39;45.13;;;23.33;;
2462;SDS011;1243;54.298;10.172;2022-09-09T07:54:08;37.10;;;21.43;;
2462;SDS011;1243;54.298;10.172;2022-09-09T07:56:36;35.03;;;20.83;;
2462;SDS011;1243;54.298;10.172;2022-09-09T07:59:03;39.77;;;22.83;;
2462;SDS011;1243;54.298;10.172;2022-09-09T08:01:35;37.57;;;21.40;;
2462;SDS011;1243;54.298;10.172;2022-09-09T08:04:15;34.53;;;18.93;;
2462;SDS011;1243;54.298;10.172;2022-09-09T08:06:46;37.80;;;20.90;;
2462;SDS011;1243;54.298;10.172;2022-09-09T08:09:18;35.70;;;20.33;;
2462;SDS011;1243;54.298;10.172;2022-09-09T08:11:50;34.73;;;20.57;;
2462;SDS011;1243;54.298;10.172;2022-09-09T08:14:16;33.40;;;20.00;;
2462;SDS011;1243;54.298;10.172;2022-09-09T08:16:44;26.37;;;16.90;;
2462;SDS011;1243;54.298;10.172;2022-09-09T08:19:11;27.20;;;17.90;;
2462;SDS011;1243;54.298;10.172;2022-09-09T08:21:38;26.27;;;18.37;;
2462;SDS011;1243;54.298;10.172;2022-09-09T08:24:05;28.43;;;16.63;;
2462;SDS011;1243;54.298;10.172;2022-09-09T08:26:38;23.77;;;16.37;;
2462;SDS011;1243;54.298;10.172;2022-09-09T08:29:09;24.53;;;15.70;;
2462;SDS011;1243;54.298;10.172;2022-09-09T08:31:38;25.10;;;15.47;;
2462;SDS011;1243;54.298;10.172;2022-09-09T08:34:07;21.53;;;15.50;;
2462;SDS011;1243;54.298;10.172;2022-09-09T08:36:41;21.10;;;15.60;;
2462;SDS011;1243;54.298;10.172;2022-09-09T08:39:09;24.97;;;16.57;;
2462;SDS011;1243;54.298;10.172;2022-09-09T08:41:46;19.00;;;14.50;;
2462;SDS011;1243;54.298;10.172;2022-09-09T08:48:08;22.07;;;14.70;;
2462;SDS011;1243;54.298;10.172;2022-09-09T08:50:48;25.43;;;16.23;;
2462;SDS011;1243;54.298;10.172;2022-09-09T08:58:39;22.77;;;15.70;;
2462;SDS011;1243;54.298;10.172;2022-09-09T09:01:17;26.40;;;17.23;;
2462;SDS011;1243;54.298;10.172;2022-09-09T09:04:19;22.17;;;14.87;;
2462;SDS011;1243;54.298;10.172;2022-09-09T09:07:10;19.77;;;15.93;;
2462;SDS011;1243;54.298;10.172;2022-09-09T09:09:52;22.40;;;15.93;;
2462;SDS011;1243;54.298;10.172;2022-09-09T09:12:28;23.63;;;15.50;;
2462;SDS011;1243;54.298;10.172;2022-09-09T09:15:00;26.87;;;16.33;;
2462;SDS011;1243;54.298;10.172;2022-09-09T09:17:27;22.17;;;17.97;;
2462;SDS011;1243;54.298;10.172;2022-09-09T09:20:11;27.37;;;18.80;;
2462;SDS011;1243;54.298;10.172;2022-09-09T09:22:45;21.90;;;17.67;;
2462;SDS011;1243;54.298;10.172;2022-09-09T09:28:23;19.77;;;16.60;;
2462;SDS011;1243;54.298;10.172;2022-09-09T09:31:04;32.73;;;18.97;;
2462;SDS011;1243;54.298;10.172;2022-09-09T09:36:11;26.93;;;18.47;;
2462;SDS011;1243;54.298;10.172;2022-09-09T09:38:40;23.80;;;18.30;;
2462;SDS011;1243;54.298;10.172;2022-09-09T09:41:34;24.20;;;18.30;;
2462;SDS011;1243;54.298;10.172;2022-09-09T09:44:05;21.27;;;16.10;;
2462;SDS011;1243;54.298;10.172;2022-09-09T09:46:47;16.97;;;15.13;;
2462;SDS011;1243;54.298;10.172;2022-09-09T09:49:13;19.50;;;15.90;;
2462;SDS011;1243;54.298;10.172;2022-09-09T09:51:39;22.27;;;15.67;;
2462;SDS011;1243;54.298;10.172;2022-09-09T09:54:09;17.57;;;15.40;;
2462;SDS011;1243;54.298;10.172;2022-09-09T09:56:40;18.53;;;15.67;;
2462;SDS011;1243;54.298;10.172;2022-09-09T09:59:31;19.27;;;17.23;;
2462;SDS011;1243;54.298;10.172;2022-09-09T10:02:21;24.77;;;15.30;;
2462;SDS011;1243;54.298;10.172;2022-09-09T10:05:00;15.67;;;13.77;;
2462;SDS011;1243;54.298;10.172;2022-09-09T10:07:28;14.70;;;12.63;;
2462;SDS011;1243;54.298;10.172;2022-09-09T10:09:55;15.93;;;14.23;;
2462;SDS011;1243;54.298;10.172;2022-09-09T10:18:15;12.23;;;11.03;;
2462;SDS011;1243;54.298;10.172;2022-09-09T10:28:54;9.57;;;8.57;;
2462;SDS011;1243;54.298;10.172;2022-09-09T10:37:29;7.47;;;6.20;;
2462;SDS011;1243;54.298;10.172;2022-09-09T10:46:10;4.90;;;4.60;;
2462;SDS011;1243;54.298;10.172;2022-09-09T10:49:09;6.07;;;5.00;;
2462;SDS011;1243;54.298;10.172;2022-09-09T10:51:54;5.63;;;5.10;;
2462;SDS011;1243;54.298;10.172;2022-09-09T10:57:50;4.30;;;3.70;;
2462;SDS011;1243;54.298;10.172;2022-09-09T11:00:19;3.33;;;3.13;;
2462;SDS011;1243;54.298;10.172;2022-09-09T11:02:48;3.33;;;3.10;;
2462;SDS011;1243;54.298;10.172;2022-09-09T11:05:21;3.37;;;3.13;;
2462;SDS011;1243;54.298;10.172;2022-09-09T11:16:41;2.87;;;2.67;;
2462;SDS011;1243;54.298;10.172;2022-09-09T11:19:36;2.53;;;2.40;;
2462;SDS011;1243;54.298;10.172;2022-09-09T11:22:12;5.77;;;4.40;;
2462;SDS011;1243;54.298;10.172;2022-09-09T11:40:25;2.40;;;2.20;;
2462;SDS011;1243;54.298;10.172;2022-09-09T11:43:12;3.60;;;1.90;;
2462;SDS011;1243;54.298;10.172;2022-09-09T11:45:41;2.63;;;2.00;;
2462;SDS011;1243;54.298;10.172;2022-09-09T11:53:49;1.30;;;1.07;;
2462;SDS011;1243;54.298;10.172;2022-09-09T11:59:00;1.47;;;1.37;;
2462;SDS011;1243;54.298;10.172;2022-09-09T12:04:05;1.63;;;1.30;;
2462;SDS011;1243;54.298;10.172;2022-09-09T12:06:44;1.90;;;1.53;;
2462;SDS011;1243;54.298;10.172;2022-09-09T12:11:50;1.60;;;0.97;;
2462;SDS011;1243;54.298;10.172;2022-09-09T12:14:19;2.17;;;0.93;;
2462;SDS011;1243;54.298;10.172;2022-09-09T12:16:47;2.47;;;1.10;;
2462;SDS011;1243;54.298;10.172;2022-09-09T12:24:46;1.53;;;1.00;;
2462;SDS011;1243;54.298;10.172;2022-09-09T12:30:18;1.30;;;1.20;;
2462;SDS011;1243;54.298;10.172;2022-09-09T12:32:46;2.30;;;0.80;;
2462;SDS011;1243;54.298;10.172;2022-09-09T12:35:19;1.77;;;1.20;;
2462;SDS011;1243;54.298;10.172;2022-09-09T12:37:53;4.20;;;0.97;;
2462;SDS011;1243;54.298;10.172;2022-09-09T12:40:30;1.60;;;1.20;;
2462;SDS011;1243;54.298;10.172;2022-09-09T12:43:00;1.97;;;1.40;;
2462;SDS011;1243;54.298;10.172;2022-09-09T12:45:28;1.20;;;1.10;;
2462;SDS011;1243;54.298;10.172;2022-09-09T12:50:32;1.30;;;0.80;;
2462;SDS011;1243;54.298;10.172;2022-09-09T12:53:45;1.57;;;1.03;;
2462;SDS011;1243;54.298;10.172;2022-09-09T12:56:01;2.53;;;1.10;;
2462;SDS011;1243;54.298;10.172;2022-09-09T12:58:44;1.87;;;0.80;;
2462;SDS011;1243;54.298;10.172;2022-09-09T13:01:23;2.00;;;0.80;;
2462;SDS011;1243;54.298;10.172;2022-09-09T13:03:53;1.97;;;1.50;;
2462;SDS011;1243;54.298;10.172;2022-09-09T13:06:24;2.33;;;1.00;;
2462;SDS011;1243;54.298;10.172;2022-09-09T13:08:53;3.10;;;1.40;;
2462;SDS011;1243;54.298;10.172;2022-09-09T13:11:38;2.37;;;1.37;;
2462;SDS011;1243;54.298;10.172;2022-09-09T13:14:16;1.20;;;1.10;;
2462;SDS011;1243;54.298;10.172;2022-09-09T13:16:56;1.13;;;0.90;;
2462;SDS011;1243;54.298;10.172;2022-09-09T13:19:24;1.53;;;1.00;;
2462;SDS011;1243;54.298;10.172;2022-09-09T13:21:52;2.53;;;1.10;;
2462;SDS011;1243;54.298;10.172;2022-09-09T13:24:40;2.00;;;0.93;;
2462;SDS011;1243;54.298;10.172;2022-09-09T13:27:18;2.17;;;1.20;;
2462;SDS011;1243;54.298;10.172;2022-09-09T13:29:56;2.03;;;1.43;;
2462;SDS011;1243;54.298;10.172;2022-09-09T13:32:23;1.60;;;1.17;;
2462;SDS011;1243;54.298;10.172;2022-09-09T13:34:54;1.43;;;1.33;;
2462;SDS011;1243;54.298;10.172;2022-09-09T13:37:23;2.13;;;1.43;;
2462;SDS011;1243;54.298;10.172;2022-09-09T13:40:03;1.73;;;1.20;;
2462;SDS011;1243;54.298;10.172;2022-09-09T13:42:32;2.07;;;1.00;;
2462;SDS011;1243;54.298;10.172;2022-09-09T13:45:00;4.83;;;1.40;;
2462;SDS011;1243;54.298;10.172;2022-09-09T13:47:34;2.40;;;1.50;;
2462;SDS011;1243;54.298;10.172;2022-09-09T13:50:20;3.70;;;1.73;;
2462;SDS011;1243;54.298;10.172;2022-09-09T13:52:57;1.40;;;1.10;;
2462;SDS011;1243;54.298;10.172;2022-09-09T13:55:25;1.60;;;1.03;;
2462;SDS011;1243;54.298;10.172;2022-09-09T13:58:14;1.30;;;0.93;;
2462;SDS011;1243;54.298;10.172;2022-09-09T14:07:01;3.77;;;1.70;;
2462;SDS011;1243;54.298;10.172;2022-09-09T14:09:28;2.87;;;1.47;;
2462;SDS011;1243;54.298;10.172;2022-09-09T14:11:56;3.43;;;1.60;;
2462;SDS011;1243;54.298;10.172;2022-09-09T14:14:25;3.57;;;1.37;;
2462;SDS011;1243;54.298;10.172;2022-09-09T14:16:51;1.40;;;1.07;;
2462;SDS011;1243;54.298;10.172;2022-09-09T14:19:16;2.20;;;1.20;;
2462;SDS011;1243;54.298;10.172;2022-09-09T14:21:43;2.30;;;0.83;;
2462;SDS011;1243;54.298;10.172;2022-09-09T14:24:09;2.80;;;1.20;;
2462;SDS011;1243;54.298;10.172;2022-09-09T14:26:35;3.00;;;1.20;;
2462;SDS011;1243;54.298;10.172;2022-09-09T14:29:01;1.90;;;1.00;;
2462;SDS011;1243;54.298;10.172;2022-09-09T14:31:27;1.00;;;0.90;;
2462;SDS011;1243;54.298;10.172;2022-09-09T14:33:53;1.20;;;1.00;;
2462;SDS011;1243;54.298;10.172;2022-09-09T14:36:18;1.83;;;1.10;;
2462;SDS011;1243;54.298;10.172;2022-09-09T14:38:45;1.87;;;0.97;;
2462;SDS011;1243;54.298;10.172;2022-09-09T14:41:11;2.70;;;1.30;;
2462;SDS011;1243;54.298;10.172;2022-09-09T14:43:41;2.83;;;1.33;;
2462;SDS011;1243;54.298;10.172;2022-09-09T14:46:09;2.27;;;2.07;;
2462;SDS011;1243;54.298;10.172;2022-09-09T14:48:39;4.40;;;1.20;;
2462;SDS011;1243;54.298;10.172;2022-09-09T14:51:09;2.77;;;1.70;;
2462;SDS011;1243;54.298;10.172;2022-09-09T14:53:38;1.83;;;1.63;;
2462;SDS011;1243;54.298;10.172;2022-09-09T14:56:14;3.00;;;1.53;;
2462;SDS011;1243;54.298;10.172;2022-09-09T14:58:42;2.10;;;1.87;;
2462;SDS011;1243;54.298;10.172;2022-09-09T15:01:11;3.43;;;1.40;;
2462;SDS011;1243;54.298;10.172;2022-09-09T15:03:42;2.13;;;1.90;;
2462;SDS011;1243;54.298;10.172;2022-09-09T15:06:13;6.73;;;2.10;;
2462;SDS011;1243;54.298;10.172;2022-09-09T15:08:41;1.97;;;1.80;;
2462;SDS011;1243;54.298;10.172;2022-09-09T15:11:11;2.37;;;1.90;;
2462;SDS011;1243;54.298;10.172;2022-09-09T15:13:38;2.53;;;1.97;;
2462;SDS011;1243;54.298;10.172;2022-09-09T15:16:06;4.57;;;1.80;;
2462;SDS011;1243;54.298;10.172;2022-09-09T15:18:33;6.60;;;3.10;;
2462;SDS011;1243;54.298;10.172;2022-09-09T15:21:02;8.03;;;2.47;;
2462;SDS011;1243;54.298;10.172;2022-09-09T15:23:33;7.03;;;2.90;;
2462;SDS011;1243;54.298;10.172;2022-09-09T15:26:00;2.40;;;2.20;;
2462;SDS011;1243;54.298;10.172;2022-09-09T15:28:26;8.27;;;3.23;;
2462;SDS011;1243;54.298;10.172;2022-09-09T15:30:52;3.13;;;2.83;;
2462;SDS011;1243;54.298;10.172;2022-09-09T15:33:29;5.87;;;3.03;;
2462;SDS011;1243;54.298;10.172;2022-09-09T15:35:55;3.10;;;2.60;;
2462;SDS011;1243;54.298;10.172;2022-09-09T15:38:21;4.03;;;3.13;;
2462;SDS011;1243;54.298;10.172;2022-09-09T15:51:00;4.00;;;2.80;;
2462;SDS011;1243;54.298;10.172;2022-09-09T15:53:30;3.80;;;3.17;;
2462;SDS011;1243;54.298;10.172;2022-09-09T15:55:59;3.30;;;3.00;;
2462;SDS011;1243;54.298;10.172;2022-09-09T15:58:29;2.57;;;2.20;;
2462;SDS011;1243;54.298;10.172;2022-09-09T16:01:01;2.53;;;2.30;;
2462;SDS011;1243;54.298;10.172;2022-09-09T16:03:33;2.83;;;2.60;;
2462;SDS011;1243;54.298;10.172;2022-09-09T16:06:00;2.40;;;2.30;;
2462;SDS011;1243;54.298;10.172;2022-09-09T16:08:35;4.03;;;2.93;;
2462;SDS011;1243;54.298;10.172;2022-09-09T16:11:25;2.57;;;2.37;;
2462;SDS011;1243;54.298;10.172;2022-09-09T16:14:00;4.00;;;2.20;;
2462;SDS011;1243;54.298;10.172;2022-09-09T16:16:36;5.33;;;2.43;;
2462;SDS011;1243;54.298;10.172;2022-09-09T16:19:06;3.90;;;2.67;;
2462;SDS011;1243;54.298;10.172;2022-09-09T16:21:53;2.93;;;2.73;;
2462;SDS011;1243;54.298;10.172;2022-09-09T16:24:41;2.80;;;2.60;;
2462;SDS011;1243;54.298;10.172;2022-09-09T16:27:06;3.40;;;3.13;;
2462;SDS011;1243;54.298;10.172;2022-09-09T16:29:33;2.77;;;2.57;;
2462;SDS011;1243;54.298;10.172;2022-09-09T16:32:01;3.23;;;2.17;;
2462;SDS011;1243;54.298;10.172;2022-09-09T16:34:30;3.03;;;2.20;;
2462;SDS011;1243;54.298;10.172;2022-09-09T16:36:58;2.40;;;2.30;;
2462;SDS011;1243;54.298;10.172;2022-09-09T16:39:27;2.63;;;2.53;;
2462;SDS011;1243;54.298;10.172;2022-09-09T16:45:29;3.53;;;2.40;;
2462;SDS011;1243;54.298;10.172;2022-09-09T16:47:59;2.10;;;2.00;;
2462;SDS011;1243;54.298;10.172;2022-09-09T16:50:35;3.73;;;2.53;;
2462;SDS011;1243;54.298;10.172;2022-09-09T16:53:04;2.97;;;2.70;;
2462;SDS011;1243;54.298;10.172;2022-09-09T16:55:40;2.90;;;2.70;;
2462;SDS011;1243;54.298;10.172;2022-09-09T16:58:10;2.63;;;2.43;;
2462;SDS011;1243;54.298;10.172;2022-09-09T17:07:06;2.73;;;2.53;;
2462;SDS011;1243;54.298;10.172;2022-09-09T17:19:43;2.83;;;2.63;;
2462;SDS011;1243;54.298;10.172;2022-09-09T17:22:09;2.90;;;2.70;;
2462;SDS011;1243;54.298;10.172;2022-09-09T17:24:38;2.80;;;2.60;;
2462;SDS011;1243;54.298;10.172;2022-09-09T17:27:05;2.40;;;2.30;;
2462;SDS011;1243;54.298;10.172;2022-09-09T17:29:32;3.00;;;2.40;;
2462;SDS011;1243;54.298;10.172;2022-09-09T17:32:00;2.70;;;2.50;;
2462;SDS011;1243;54.298;10.172;2022-09-09T17:34:27;2.90;;;2.70;;
2462;SDS011;1243;54.298;10.172;2022-09-09T17:40:21;4.63;;;2.50;;
2462;SDS011;1243;54.298;10.172;2022-09-09T17:42:47;2.33;;;2.23;;
2462;SDS011;1243;54.298;10.172;2022-09-09T17:45:14;2.70;;;2.50;;
2462;SDS011;1243;54.298;10.172;2022-09-09T17:51:21;3.73;;;3.20;;
2462;SDS011;1243;54.298;10.172;2022-09-09T17:53:50;3.60;;;3.30;;
2462;SDS011;1243;54.298;10.172;2022-09-09T17:56:18;3.60;;;3.10;;
2462;SDS011;1243;54.298;10.172;2022-09-09T17:58:48;2.63;;;2.43;;
2462;SDS011;1243;54.298;10.172;2022-09-09T18:01:17;3.60;;;3.40;;
2462;SDS011;1243;54.298;10.172;2022-09-09T18:03:46;4.20;;;3.80;;
2462;SDS011;1243;54.298;10.172;2022-09-09T18:06:17;3.87;;;3.57;;
2462;SDS011;1243;54.298;10.172;2022-09-09T18:08:58;3.70;;;3.40;;
2462;SDS011;1243;54.298;10.172;2022-09-09T18:11:27;5.30;;;4.23;;
2462;SDS011;1243;54.298;10.172;2022-09-09T18:13:57;3.40;;;3.10;;
2462;SDS011;1243;54.298;10.172;2022-09-09T18:16:27;4.20;;;3.90;;
2462;SDS011;1243;54.298;10.172;2022-09-09T18:19:00;3.50;;;3.20;;
2462;SDS011;1243;54.298;10.172;2022-09-09T18:21:41;3.00;;;2.80;;
2462;SDS011;1243;54.298;10.172;2022-09-09T18:24:11;3.30;;;3.10;;
2462;SDS011;1243;54.298;10.172;2022-09-09T18:26:50;3.17;;;2.97;;
2462;SDS011;1243;54.298;10.172;2022-09-09T18:29:17;3.10;;;2.90;;
2462;SDS011;1243;54.298;10.172;2022-09-09T18:34:46;3.50;;;3.20;;
2462;SDS011;1243;54.298;10.172;2022-09-09T18:39:50;3.17;;;2.97;;